sensor_id;sensor_type;location;lat;lon;timestamp;P1;P2;P0
73623;PMS5003;61921;53.226;-1.296;2023-02-05T00:00:41;5;3;
73623;PMS5003;61921;53.226;-1.296;2023-02-05T00:03:07;2;1;
73623;PMS5003;61921;53.226;-1.296;2023-02-05T00:05:33;2;2;
73623;PMS5003;61921;53.226;-1.296;2023-02-05T00:07:58;2;2;
73623;PMS5003;61921;53.226;-1.296;2023-02-05T00:10:24;2;2;
73623;PMS5003;61921;53.226;-1.296;2023-02-05T00:12:49;4;3;
73623;PMS5003;61921;53.226;-1.296;2023-02-05T00:15:15;2;2;
73623;PMS5003;61921;53.226;-1.296;2023-02-05T00:17:40;5;3;
73623;PMS5003;61921;53.226;-1.296;2023-02-05T00:20:06;7;5;
73623;PMS5003;61921;53.226;-1.296;2023-02-05T00:22:31;3;2;
73623;PMS5003;61921;53.226;-1.296;2023-02-05T00:24:57;4;3;
73623;PMS5003;61921;53.226;-1.296;2023-02-05T00:27:23;3;2;
73623;PMS5003;61921;53.226;-1.296;2023-02-05T00:29:48;5;2;
73623;PMS5003;61921;53.226;-1.296;2023-02-05T00:32:14;5;4;
73623;PMS5003;61921;53.226;-1.296;2023-02-05T00:34:39;8;4;
73623;PMS5003;61921;53.226;-1.296;2023-02-05T00:37:05;6;5;
73623;PMS5003;61921;53.226;-1.296;2023-02-05T00:39:30;7;3;
73623;PMS5003;61921;53.226;-1.296;2023-02-05T00:41:56;3;2;
73623;PMS5003;61921;53.226;-1.296;2023-02-05T00:44:21;1;1;
73623;PMS5003;61921;53.226;-1.296;2023-02-05T00:46:47;2;2;
73623;PMS5003;61921;53.226;-1.296;2023-02-05T00:49:13;1;1;
73623;PMS5003;61921;53.226;-1.296;2023-02-05T00:51:39;3;3;
73623;PMS5003;61921;53.226;-1.296;2023-02-05T00:54:04;7;5;
73623;PMS5003;61921;53.226;-1.296;2023-02-05T00:56:29;2;2;
73623;PMS5003;61921;53.226;-1.296;2023-02-05T00:58:55;3;3;
73623;PMS5003;61921;53.226;-1.296;2023-02-05T01:01:20;5;5;
73623;PMS5003;61921;53.226;-1.296;2023-02-05T01:03:46;2;2;
73623;PMS5003;61921;53.226;-1.296;2023-02-05T01:06:12;4;4;
73623;PMS5003;61921;53.226;-1.296;2023-02-05T01:08:37;2;2;
73623;PMS5003;61921;53.226;-1.296;2023-02-05T01:11:05;1;1;
73623;PMS5003;61921;53.226;-1.296;2023-02-05T01:13:29;2;2;
73623;PMS5003;61921;53.226;-1.296;2023-02-05T01:15:54;3;2;
73623;PMS5003;61921;53.226;-1.296;2023-02-05T01:18:20;3;2;
73623;PMS5003;61921;53.226;-1.296;2023-02-05T01:20:45;4;4;
73623;PMS5003;61921;53.226;-1.296;2023-02-05T01:23:11;1;1;
73623;PMS5003;61921;53.226;-1.296;2023-02-05T01:25:37;3;3;
73623;PMS5003;61921;53.226;-1.296;2023-02-05T01:28:03;3;2;
73623;PMS5003;61921;53.226;-1.296;2023-02-05T01:30:28;2;2;
73623;PMS5003;61921;53.226;-1.296;2023-02-05T01:32:54;3;3;
73623;PMS5003;61921;53.226;-1.296;2023-02-05T01:35:19;4;4;
73623;PMS5003;61921;53.226;-1.296;2023-02-05T01:37:45;8;6;
73623;PMS5003;61921;53.226;-1.296;2023-02-05T01:40:11;17;15;
73623;PMS5003;61921;53.226;-1.296;2023-02-05T01:42:36;26;22;
73623;PMS5003;61921;53.226;-1.296;2023-02-05T01:47:27;6;5;
73623;PMS5003;61921;53.226;-1.296;2023-02-05T01:49:52;9;6;
73623;PMS5003;61921;53.226;-1.296;2023-02-05T02:31:07;4;3;
73623;PMS5003;61921;53.226;-1.296;2023-02-05T02:33:33;5;3;
73623;PMS5003;61921;53.226;-1.296;2023-02-05T02:35:59;6;5;
73623;PMS5003;61921;53.226;-1.296;2023-02-05T02:38:25;3;3;
73623;PMS5003;61921;53.226;-1.296;2023-02-05T02:40:50;11;6;
73623;PMS5003;61921;53.226;-1.296;2023-02-05T02:43:16;18;10;
73623;PMS5003;61921;53.226;-1.296;2023-02-05T02:45:42;10;9;
73623;PMS5003;61921;53.226;-1.296;2023-02-05T02:48:06;11;10;
73623;PMS5003;61921;53.226;-1.296;2023-02-05T02:50:33;8;8;
73623;PMS5003;61921;53.226;-1.296;2023-02-05T02:52:59;9;4;
73623;PMS5003;61921;53.226;-1.296;2023-02-05T02:55:23;5;4;
73623;PMS5003;61921;53.226;-1.296;2023-02-05T02:57:49;11;4;
73623;PMS5003;61921;53.226;-1.296;2023-02-05T03:00:15;3;2;
73623;PMS5003;61921;53.226;-1.296;2023-02-05T03:02:40;2;2;
73623;PMS5003;61921;53.226;-1.296;2023-02-05T03:05:07;6;5;
73623;PMS5003;61921;53.226;-1.296;2023-02-05T03:07:32;6;3;
73623;PMS5003;61921;53.226;-1.296;2023-02-05T03:09:58;8;8;
73623;PMS5003;61921;53.226;-1.296;2023-02-05T03:12:22;8;3;
73623;PMS5003;61921;53.226;-1.296;2023-02-05T03:14:47;3;3;
73623;PMS5003;61921;53.226;-1.296;2023-02-05T03:17:13;4;4;
73623;PMS5003;61921;53.226;-1.296;2023-02-05T03:19:39;6;3;
73623;PMS5003;61921;53.226;-1.296;2023-02-05T03:22:04;3;3;
73623;PMS5003;61921;53.226;-1.296;2023-02-05T03:24:30;4;3;
73623;PMS5003;61921;53.226;-1.296;2023-02-05T03:26:55;3;3;
73623;PMS5003;61921;53.226;-1.296;2023-02-05T03:29:23;2;2;
73623;PMS5003;61921;53.226;-1.296;2023-02-05T03:31:48;1;1;
73623;PMS5003;61921;53.226;-1.296;2023-02-05T03:34:16;5;2;
73623;PMS5003;61921;53.226;-1.296;2023-02-05T03:36:41;5;3;
73623;PMS5003;61921;53.226;-1.296;2023-02-05T03:39:07;5;2;
73623;PMS5003;61921;53.226;-1.296;2023-02-05T03:41:32;4;3;
73623;PMS5003;61921;53.226;-1.296;2023-02-05T03:43:56;6;2;
73623;PMS5003;61921;53.226;-1.296;2023-02-05T03:46:22;4;3;
73623;PMS5003;61921;53.226;-1.296;2023-02-05T03:48:51;3;3;
73623;PMS5003;61921;53.226;-1.296;2023-02-05T03:51:18;6;3;
73623;PMS5003;61921;53.226;-1.296;2023-02-05T03:53:38;1;1;
73623;PMS5003;61921;53.226;-1.296;2023-02-05T03:56:04;5;3;
73623;PMS5003;61921;53.226;-1.296;2023-02-05T03:58:30;3;3;
73623;PMS5003;61921;53.226;-1.296;2023-02-05T04:00:55;4;3;
73623;PMS5003;61921;53.226;-1.296;2023-02-05T04:03:20;4;2;
73623;PMS5003;61921;53.226;-1.296;2023-02-05T04:05:46;3;2;
73623;PMS5003;61921;53.226;-1.296;2023-02-05T04:08:12;5;4;
73623;PMS5003;61921;53.226;-1.296;2023-02-05T04:10:37;4;2;
73623;PMS5003;61921;53.226;-1.296;2023-02-05T04:13:03;8;3;
73623;PMS5003;61921;53.226;-1.296;2023-02-05T04:15:29;5;2;
73623;PMS5003;61921;53.226;-1.296;2023-02-05T04:17:55;5;3;
73623;PMS5003;61921;53.226;-1.296;2023-02-05T04:20:20;4;2;
73623;PMS5003;61921;53.226;-1.296;2023-02-05T04:22:46;2;2;
73623;PMS5003;61921;53.226;-1.296;2023-02-05T04:25:11;5;2;
73623;PMS5003;61921;53.226;-1.296;2023-02-05T04:27:37;6;5;
73623;PMS5003;61921;53.226;-1.296;2023-02-05T04:30:03;6;3;
73623;PMS5003;61921;53.226;-1.296;2023-02-05T04:32:28;2;2;
73623;PMS5003;61921;53.226;-1.296;2023-02-05T04:34:54;4;4;
73623;PMS5003;61921;53.226;-1.296;2023-02-05T04:37:20;11;2;
73623;PMS5003;61921;53.226;-1.296;2023-02-05T04:39:45;7;4;
73623;PMS5003;61921;53.226;-1.296;2023-02-05T04:42:11;4;3;
73623;PMS5003;61921;53.226;-1.296;2023-02-05T04:44:37;3;2;
73623;PMS5003;61921;53.226;-1.296;2023-02-05T04:47:02;4;3;
73623;PMS5003;61921;53.226;-1.296;2023-02-05T04:49:28;5;3;
73623;PMS5003;61921;53.226;-1.296;2023-02-05T04:51:53;2;2;
73623;PMS5003;61921;53.226;-1.296;2023-02-05T04:54:19;4;3;
73623;PMS5003;61921;53.226;-1.296;2023-02-05T04:56:45;4;4;
73623;PMS5003;61921;53.226;-1.296;2023-02-05T04:59:11;3;2;
73623;PMS5003;61921;53.226;-1.296;2023-02-05T05:01:36;5;3;
73623;PMS5003;61921;53.226;-1.296;2023-02-05T05:04:02;5;2;
73623;PMS5003;61921;53.226;-1.296;2023-02-05T05:06:28;4;2;
73623;PMS5003;61921;53.226;-1.296;2023-02-05T05:08:54;4;3;
73623;PMS5003;61921;53.226;-1.296;2023-02-05T05:11:19;5;2;
73623;PMS5003;61921;53.226;-1.296;2023-02-05T05:13:45;4;4;
73623;PMS5003;61921;53.226;-1.296;2023-02-05T05:16:11;7;5;
73623;PMS5003;61921;53.226;-1.296;2023-02-05T05:18:36;4;3;
73623;PMS5003;61921;53.226;-1.296;2023-02-05T05:21:02;4;3;
73623;PMS5003;61921;53.226;-1.296;2023-02-05T05:23:27;10;5;
73623;PMS5003;61921;53.226;-1.296;2023-02-05T05:25:52;9;5;
73623;PMS5003;61921;53.226;-1.296;2023-02-05T05:28:18;12;9;
73623;PMS5003;61921;53.226;-1.296;2023-02-05T05:30:44;7;4;
73623;PMS5003;61921;53.226;-1.296;2023-02-05T05:33:09;7;3;
73623;PMS5003;61921;53.226;-1.296;2023-02-05T05:35:35;11;8;
73623;PMS5003;61921;53.226;-1.296;2023-02-05T05:38:00;14;10;
73623;PMS5003;61921;53.226;-1.296;2023-02-05T05:40:26;9;7;
73623;PMS5003;61921;53.226;-1.296;2023-02-05T05:42:52;7;7;
73623;PMS5003;61921;53.226;-1.296;2023-02-05T05:45:17;8;7;
73623;PMS5003;61921;53.226;-1.296;2023-02-05T05:47:43;8;3;
73623;PMS5003;61921;53.226;-1.296;2023-02-05T05:50:09;8;4;
73623;PMS5003;61921;53.226;-1.296;2023-02-05T05:52:35;4;4;
73623;PMS5003;61921;53.226;-1.296;2023-02-05T05:55:00;5;3;
73623;PMS5003;61921;53.226;-1.296;2023-02-05T05:57:26;8;8;
73623;PMS5003;61921;53.226;-1.296;2023-02-05T05:59:51;14;9;
73623;PMS5003;61921;53.226;-1.296;2023-02-05T06:02:16;9;4;
73623;PMS5003;61921;53.226;-1.296;2023-02-05T06:04:42;7;3;
73623;PMS5003;61921;53.226;-1.296;2023-02-05T06:07:08;7;4;
73623;PMS5003;61921;53.226;-1.296;2023-02-05T06:09:34;8;3;
73623;PMS5003;61921;53.226;-1.296;2023-02-05T06:11:59;11;9;
73623;PMS5003;61921;53.226;-1.296;2023-02-05T06:14:24;7;7;
73623;PMS5003;61921;53.226;-1.296;2023-02-05T06:16:50;5;3;
73623;PMS5003;61921;53.226;-1.296;2023-02-05T06:19:15;14;10;
73623;PMS5003;61921;53.226;-1.296;2023-02-05T06:21:41;11;10;
73623;PMS5003;61921;53.226;-1.296;2023-02-05T06:24:07;12;12;
73623;PMS5003;61921;53.226;-1.296;2023-02-05T06:26:33;9;9;
73623;PMS5003;61921;53.226;-1.296;2023-02-05T06:28:58;11;5;
73623;PMS5003;61921;53.226;-1.296;2023-02-05T06:31:23;5;2;
73623;PMS5003;61921;53.226;-1.296;2023-02-05T06:33:49;7;3;
73623;PMS5003;61921;53.226;-1.296;2023-02-05T06:36:15;5;3;
73623;PMS5003;61921;53.226;-1.296;2023-02-05T06:38:40;7;3;
73623;PMS5003;61921;53.226;-1.296;2023-02-05T06:41:06;2;2;
73623;PMS5003;61921;53.226;-1.296;2023-02-05T06:43:32;4;3;
73623;PMS5003;61921;53.226;-1.296;2023-02-05T06:45:58;4;3;
73623;PMS5003;61921;53.226;-1.296;2023-02-05T06:48:23;5;2;
73623;PMS5003;61921;53.226;-1.296;2023-02-05T06:50:49;8;3;
73623;PMS5003;61921;53.226;-1.296;2023-02-05T06:53:14;7;4;
73623;PMS5003;61921;53.226;-1.296;2023-02-05T06:55:40;2;2;
73623;PMS5003;61921;53.226;-1.296;2023-02-05T06:58:05;3;3;
73623;PMS5003;61921;53.226;-1.296;2023-02-05T07:00:31;8;3;
73623;PMS5003;61921;53.226;-1.296;2023-02-05T07:02:56;7;5;
73623;PMS5003;61921;53.226;-1.296;2023-02-05T07:05:22;4;2;
73623;PMS5003;61921;53.226;-1.296;2023-02-05T07:07:48;4;3;
73623;PMS5003;61921;53.226;-1.296;2023-02-05T07:10:13;10;5;
73623;PMS5003;61921;53.226;-1.296;2023-02-05T07:12:39;7;4;
73623;PMS5003;61921;53.226;-1.296;2023-02-05T07:15:05;4;3;
73623;PMS5003;61921;53.226;-1.296;2023-02-05T07:17:30;8;4;
73623;PMS5003;61921;53.226;-1.296;2023-02-05T07:19:55;5;4;
73623;PMS5003;61921;53.226;-1.296;2023-02-05T07:22:21;10;7;
73623;PMS5003;61921;53.226;-1.296;2023-02-05T07:24:46;5;5;
73623;PMS5003;61921;53.226;-1.296;2023-02-05T07:27:12;7;4;
73623;PMS5003;61921;53.226;-1.296;2023-02-05T07:29:38;9;4;
73623;PMS5003;61921;53.226;-1.296;2023-02-05T07:32:04;9;7;
73623;PMS5003;61921;53.226;-1.296;2023-02-05T07:34:29;3;3;
73623;PMS5003;61921;53.226;-1.296;2023-02-05T07:36:55;8;5;
73623;PMS5003;61921;53.226;-1.296;2023-02-05T07:39:21;8;4;
73623;PMS5003;61921;53.226;-1.296;2023-02-05T07:41:47;5;4;
73623;PMS5003;61921;53.226;-1.296;2023-02-05T07:44:13;5;4;
73623;PMS5003;61921;53.226;-1.296;2023-02-05T07:46:38;2;2;
73623;PMS5003;61921;53.226;-1.296;2023-02-05T07:49:04;7;5;
73623;PMS5003;61921;53.226;-1.296;2023-02-05T07:51:29;4;4;
73623;PMS5003;61921;53.226;-1.296;2023-02-05T07:53:55;8;5;
73623;PMS5003;61921;53.226;-1.296;2023-02-05T07:56:21;8;7;
73623;PMS5003;61921;53.226;-1.296;2023-02-05T07:58:47;7;4;
73623;PMS5003;61921;53.226;-1.296;2023-02-05T08:01:12;7;3;
73623;PMS5003;61921;53.226;-1.296;2023-02-05T08:03:38;4;3;
73623;PMS5003;61921;53.226;-1.296;2023-02-05T08:06:04;7;3;
73623;PMS5003;61921;53.226;-1.296;2023-02-05T08:08:30;5;3;
73623;PMS5003;61921;53.226;-1.296;2023-02-05T08:10:56;5;3;
73623;PMS5003;61921;53.226;-1.296;2023-02-05T08:13:21;9;5;
73623;PMS5003;61921;53.226;-1.296;2023-02-05T08:15:46;3;3;
73623;PMS5003;61921;53.226;-1.296;2023-02-05T08:18:12;4;3;
73623;PMS5003;61921;53.226;-1.296;2023-02-05T08:20:38;4;3;
73623;PMS5003;61921;53.226;-1.296;2023-02-05T08:23:04;5;4;
73623;PMS5003;61921;53.226;-1.296;2023-02-05T08:25:29;5;4;
73623;PMS5003;61921;53.226;-1.296;2023-02-05T08:27:55;7;2;
73623;PMS5003;61921;53.226;-1.296;2023-02-05T08:30:21;4;3;
73623;PMS5003;61921;53.226;-1.296;2023-02-05T08:32:47;7;5;
73623;PMS5003;61921;53.226;-1.296;2023-02-05T08:35:12;7;3;
73623;PMS5003;61921;53.226;-1.296;2023-02-05T08:37:38;10;4;
73623;PMS5003;61921;53.226;-1.296;2023-02-05T08:40:04;7;3;
73623;PMS5003;61921;53.226;-1.296;2023-02-05T08:42:29;9;8;
73623;PMS5003;61921;53.226;-1.296;2023-02-05T08:44:55;5;5;
73623;PMS5003;61921;53.226;-1.296;2023-02-05T08:47:21;2;2;
73623;PMS5003;61921;53.226;-1.296;2023-02-05T08:49:47;6;5;
73623;PMS5003;61921;53.226;-1.296;2023-02-05T08:52:12;10;6;
73623;PMS5003;61921;53.226;-1.296;2023-02-05T08:54:38;4;4;
73623;PMS5003;61921;53.226;-1.296;2023-02-05T08:57:03;9;5;
73623;PMS5003;61921;53.226;-1.296;2023-02-05T08:59:29;8;6;
73623;PMS5003;61921;53.226;-1.296;2023-02-05T09:01:54;4;4;
73623;PMS5003;61921;53.226;-1.296;2023-02-05T09:04:20;11;5;
73623;PMS5003;61921;53.226;-1.296;2023-02-05T09:06:46;4;4;
73623;PMS5003;61921;53.226;-1.296;2023-02-05T09:09:12;9;8;
73623;PMS5003;61921;53.226;-1.296;2023-02-05T09:11:37;8;8;
73623;PMS5003;61921;53.226;-1.296;2023-02-05T09:14:03;14;11;
73623;PMS5003;61921;53.226;-1.296;2023-02-05T09:16:28;17;16;
73623;PMS5003;61921;53.226;-1.296;2023-02-05T09:18:53;18;17;
73623;PMS5003;61921;53.226;-1.296;2023-02-05T09:21:19;17;17;
73623;PMS5003;61921;53.226;-1.296;2023-02-05T09:23:44;17;13;
73623;PMS5003;61921;53.226;-1.296;2023-02-05T09:26:10;17;13;
73623;PMS5003;61921;53.226;-1.296;2023-02-05T09:28:35;13;11;
73623;PMS5003;61921;53.226;-1.296;2023-02-05T09:31:04;18;13;
73623;PMS5003;61921;53.226;-1.296;2023-02-05T09:33:26;10;10;
73623;PMS5003;61921;53.226;-1.296;2023-02-05T09:35:51;27;24;
73623;PMS5003;61921;53.226;-1.296;2023-02-05T09:38:17;11;5;
73623;PMS5003;61921;53.226;-1.296;2023-02-05T09:40:46;12;9;
73623;PMS5003;61921;53.226;-1.296;2023-02-05T09:45:35;16;13;
73623;PMS5003;61921;53.226;-1.296;2023-02-05T09:48:00;23;18;
73623;PMS5003;61921;53.226;-1.296;2023-02-05T09:50:24;15;12;
73623;PMS5003;61921;53.226;-1.296;2023-02-05T09:52:49;16;15;
73623;PMS5003;61921;53.226;-1.296;2023-02-05T09:55:16;11;8;
73623;PMS5003;61921;53.226;-1.296;2023-02-05T09:57:40;8;6;
73623;PMS5003;61921;53.226;-1.296;2023-02-05T10:00:11;6;6;
73623;PMS5003;61921;53.226;-1.296;2023-02-05T10:02:34;11;6;
73623;PMS5003;61921;53.226;-1.296;2023-02-05T10:04:57;12;7;
73623;PMS5003;61921;53.226;-1.296;2023-02-05T10:07:24;7;6;
73623;PMS5003;61921;53.226;-1.296;2023-02-05T10:09:54;7;6;
73623;PMS5003;61921;53.226;-1.296;2023-02-05T10:12:16;11;5;
73623;PMS5003;61921;53.226;-1.296;2023-02-05T10:14:42;5;4;
73623;PMS5003;61921;53.226;-1.296;2023-02-05T10:17:09;11;7;
73623;PMS5003;61921;53.226;-1.296;2023-02-05T10:19:36;7;6;
73623;PMS5003;61921;53.226;-1.296;2023-02-05T10:22:00;11;6;
73623;PMS5003;61921;53.226;-1.296;2023-02-05T10:24:25;7;6;
73623;PMS5003;61921;53.226;-1.296;2023-02-05T10:26:48;12;5;
73623;PMS5003;61921;53.226;-1.296;2023-02-05T10:29:16;6;6;
73623;PMS5003;61921;53.226;-1.296;2023-02-05T10:31:40;8;6;
73623;PMS5003;61921;53.226;-1.296;2023-02-05T10:34:05;4;4;
73623;PMS5003;61921;53.226;-1.296;2023-02-05T10:36:29;6;5;
73623;PMS5003;61921;53.226;-1.296;2023-02-05T10:38:55;8;6;
73623;PMS5003;61921;53.226;-1.296;2023-02-05T10:41:22;11;6;
73623;PMS5003;61921;53.226;-1.296;2023-02-05T10:43:47;5;5;
73623;PMS5003;61921;53.226;-1.296;2023-02-05T10:46:11;7;6;
73623;PMS5003;61921;53.226;-1.296;2023-02-05T10:48:38;4;4;
73623;PMS5003;61921;53.226;-1.296;2023-02-05T10:51:02;7;6;
73623;PMS5003;61921;53.226;-1.296;2023-02-05T10:53:28;7;6;
73623;PMS5003;61921;53.226;-1.296;2023-02-05T10:55:53;7;7;
73623;PMS5003;61921;53.226;-1.296;2023-02-05T10:58:23;8;6;
73623;PMS5003;61921;53.226;-1.296;2023-02-05T11:00:44;8;6;
73623;PMS5003;61921;53.226;-1.296;2023-02-05T11:03:09;9;6;
73623;PMS5003;61921;53.226;-1.296;2023-02-05T11:05:36;5;5;
73623;PMS5003;61921;53.226;-1.296;2023-02-05T11:08:00;5;4;
73623;PMS5003;61921;53.226;-1.296;2023-02-05T11:10:27;6;6;
73623;PMS5003;61921;53.226;-1.296;2023-02-05T11:12:52;7;4;
73623;PMS5003;61921;53.226;-1.296;2023-02-05T11:15:19;8;6;
73623;PMS5003;61921;53.226;-1.296;2023-02-05T11:17:43;9;7;
73623;PMS5003;61921;53.226;-1.296;2023-02-05T11:20:23;16;5;
73623;PMS5003;61921;53.226;-1.296;2023-02-05T11:22:35;4;3;
73623;PMS5003;61921;53.226;-1.296;2023-02-05T11:25:08;9;5;
73623;PMS5003;61921;53.226;-1.296;2023-02-05T11:27:29;6;3;
73623;PMS5003;61921;53.226;-1.296;2023-02-05T11:29:51;8;5;
73623;PMS5003;61921;53.226;-1.296;2023-02-05T11:32:17;5;5;
73623;PMS5003;61921;53.226;-1.296;2023-02-05T11:34:41;2;2;
73623;PMS5003;61921;53.226;-1.296;2023-02-05T11:37:09;5;4;
73623;PMS5003;61921;53.226;-1.296;2023-02-05T11:39:33;3;3;
73623;PMS5003;61921;53.226;-1.296;2023-02-05T11:44:24;7;5;
73623;PMS5003;61921;53.226;-1.296;2023-02-05T11:46:49;8;5;
73623;PMS5003;61921;53.226;-1.296;2023-02-05T11:49:19;9;5;
73623;PMS5003;61921;53.226;-1.296;2023-02-05T11:51:42;5;4;
73623;PMS5003;61921;53.226;-1.296;2023-02-05T11:54:10;6;5;
73623;PMS5003;61921;53.226;-1.296;2023-02-05T11:56:31;4;4;
73623;PMS5003;61921;53.226;-1.296;2023-02-05T11:58:57;7;5;
73623;PMS5003;61921;53.226;-1.296;2023-02-05T12:01:22;7;4;
73623;PMS5003;61921;53.226;-1.296;2023-02-05T12:06:16;5;3;
73623;PMS5003;61921;53.226;-1.296;2023-02-05T12:08:41;8;5;
73623;PMS5003;61921;53.226;-1.296;2023-02-05T12:11:12;6;4;
73623;PMS5003;61921;53.226;-1.296;2023-02-05T12:13:33;5;5;
73623;PMS5003;61921;53.226;-1.296;2023-02-05T12:15:58;10;5;
73623;PMS5003;61921;53.226;-1.296;2023-02-05T12:18:24;2;2;
73623;PMS5003;61921;53.226;-1.296;2023-02-05T12:20:47;3;2;
73623;PMS5003;61921;53.226;-1.296;2023-02-05T12:23:18;5;5;
73623;PMS5003;61921;53.226;-1.296;2023-02-05T12:25:39;7;5;
73623;PMS5003;61921;53.226;-1.296;2023-02-05T12:28:06;4;4;
73623;PMS5003;61921;53.226;-1.296;2023-02-05T12:30:30;6;3;
73623;PMS5003;61921;53.226;-1.296;2023-02-05T12:32:55;7;4;
73623;PMS5003;61921;53.226;-1.296;2023-02-05T12:35:22;6;4;
73623;PMS5003;61921;53.226;-1.296;2023-02-05T12:37:45;7;5;
73623;PMS5003;61921;53.226;-1.296;2023-02-05T12:40:14;8;7;
73623;PMS5003;61921;53.226;-1.296;2023-02-05T12:42:35;6;6;
73623;PMS5003;61921;53.226;-1.296;2023-02-05T12:45:10;6;4;
73623;PMS5003;61921;53.226;-1.296;2023-02-05T12:47:31;7;4;
73623;PMS5003;61921;53.226;-1.296;2023-02-05T12:49:57;12;8;
73623;PMS5003;61921;53.226;-1.296;2023-02-05T12:52:20;7;6;
73623;PMS5003;61921;53.226;-1.296;2023-02-05T12:54:47;4;4;
73623;PMS5003;61921;53.226;-1.296;2023-02-05T12:57:07;4;4;
73623;PMS5003;61921;53.226;-1.296;2023-02-05T12:59:35;5;5;
73623;PMS5003;61921;53.226;-1.296;2023-02-05T13:01:58;4;3;
73623;PMS5003;61921;53.226;-1.296;2023-02-05T13:04:25;6;4;
73623;PMS5003;61921;53.226;-1.296;2023-02-05T13:06:51;9;4;
73623;PMS5003;61921;53.226;-1.296;2023-02-05T13:09:15;3;2;
73623;PMS5003;61921;53.226;-1.296;2023-02-05T13:11:40;6;3;
73623;PMS5003;61921;53.226;-1.296;2023-02-05T13:14:07;9;4;
73623;PMS5003;61921;53.226;-1.296;2023-02-05T13:16:32;4;4;
73623;PMS5003;61921;53.226;-1.296;2023-02-05T13:18:57;6;5;
73623;PMS5003;61921;53.226;-1.296;2023-02-05T13:21:22;6;3;
73623;PMS5003;61921;53.226;-1.296;2023-02-05T13:23:47;7;2;
73623;PMS5003;61921;53.226;-1.296;2023-02-05T13:26:13;9;7;
73623;PMS5003;61921;53.226;-1.296;2023-02-05T13:28:39;4;3;
73623;PMS5003;61921;53.226;-1.296;2023-02-05T13:31:04;8;7;
73623;PMS5003;61921;53.226;-1.296;2023-02-05T13:33:29;9;6;
73623;PMS5003;61921;53.226;-1.296;2023-02-05T13:35:56;4;2;
73623;PMS5003;61921;53.226;-1.296;2023-02-05T13:38:26;6;4;
73623;PMS5003;61921;53.226;-1.296;2023-02-05T13:40:53;8;4;
73623;PMS5003;61921;53.226;-1.296;2023-02-05T13:43:20;2;2;
73623;PMS5003;61921;53.226;-1.296;2023-02-05T13:45:44;6;4;
73623;PMS5003;61921;53.226;-1.296;2023-02-05T13:48:06;4;4;
73623;PMS5003;61921;53.226;-1.296;2023-02-05T13:52:58;5;3;
73623;PMS5003;61921;53.226;-1.296;2023-02-05T13:55:23;9;5;
73623;PMS5003;61921;53.226;-1.296;2023-02-05T14:00:09;8;5;
73623;PMS5003;61921;53.226;-1.296;2023-02-05T14:02:36;6;2;
73623;PMS5003;61921;53.226;-1.296;2023-02-05T14:04:59;3;2;
73623;PMS5003;61921;53.226;-1.296;2023-02-05T14:07:26;4;3;
73623;PMS5003;61921;53.226;-1.296;2023-02-05T14:09:51;4;3;
73623;PMS5003;61921;53.226;-1.296;2023-02-05T14:12:20;5;5;
73623;PMS5003;61921;53.226;-1.296;2023-02-05T14:14:41;4;4;
73623;PMS5003;61921;53.226;-1.296;2023-02-05T14:22:00;3;2;
73623;PMS5003;61921;53.226;-1.296;2023-02-05T14:24:25;4;3;
73623;PMS5003;61921;53.226;-1.296;2023-02-05T14:26:49;6;3;
73623;PMS5003;61921;53.226;-1.296;2023-02-05T14:36:35;8;6;
73623;PMS5003;61921;53.226;-1.296;2023-02-05T14:38:55;2;2;
73623;PMS5003;61921;53.226;-1.296;2023-02-05T14:41:21;10;3;
73623;PMS5003;61921;53.226;-1.296;2023-02-05T14:43:52;4;2;
73623;PMS5003;61921;53.226;-1.296;2023-02-05T14:48:38;3;2;
73623;PMS5003;61921;53.226;-1.296;2023-02-05T14:51:03;5;2;
73623;PMS5003;61921;53.226;-1.296;2023-02-05T14:53:27;21;19;
73623;PMS5003;61921;53.226;-1.296;2023-02-05T14:55:53;17;13;
73623;PMS5003;61921;53.226;-1.296;2023-02-05T14:58:20;17;14;
73623;PMS5003;61921;53.226;-1.296;2023-02-05T15:00:43;11;7;
73623;PMS5003;61921;53.226;-1.296;2023-02-05T15:05:35;5;5;
73623;PMS5003;61921;53.226;-1.296;2023-02-05T15:08:02;9;8;
73623;PMS5003;61921;53.226;-1.296;2023-02-05T15:10:25;6;6;
73623;PMS5003;61921;53.226;-1.296;2023-02-05T15:12:53;6;6;
73623;PMS5003;61921;53.226;-1.296;2023-02-05T15:15:23;10;7;
73623;PMS5003;61921;53.226;-1.296;2023-02-05T15:17:46;12;8;
73623;PMS5003;61921;53.226;-1.296;2023-02-05T15:22:32;19;17;
73623;PMS5003;61921;53.226;-1.296;2023-02-05T15:24:57;11;9;
73623;PMS5003;61921;53.226;-1.296;2023-02-05T15:27:23;10;9;
73623;PMS5003;61921;53.226;-1.296;2023-02-05T15:29:48;6;4;
73623;PMS5003;61921;53.226;-1.296;2023-02-05T15:32:15;4;3;
73623;PMS5003;61921;53.226;-1.296;2023-02-05T15:34:40;5;3;
73623;PMS5003;61921;53.226;-1.296;2023-02-05T15:37:05;5;3;
73623;PMS5003;61921;53.226;-1.296;2023-02-05T15:39:31;3;2;
73623;PMS5003;61921;53.226;-1.296;2023-02-05T15:41:55;5;4;
73623;PMS5003;61921;53.226;-1.296;2023-02-05T15:44:22;4;4;
73623;PMS5003;61921;53.226;-1.296;2023-02-05T15:46:46;2;2;
73623;PMS5003;61921;53.226;-1.296;2023-02-05T15:49:11;3;3;
73623;PMS5003;61921;53.226;-1.296;2023-02-05T15:51:37;3;3;
73623;PMS5003;61921;53.226;-1.296;2023-02-05T15:54:02;4;4;
73623;PMS5003;61921;53.226;-1.296;2023-02-05T15:56:30;5;4;
73623;PMS5003;61921;53.226;-1.296;2023-02-05T15:58:53;7;6;
73623;PMS5003;61921;53.226;-1.296;2023-02-05T16:01:21;4;4;
73623;PMS5003;61921;53.226;-1.296;2023-02-05T16:03:44;4;2;
73623;PMS5003;61921;53.226;-1.296;2023-02-05T16:06:16;3;3;
73623;PMS5003;61921;53.226;-1.296;2023-02-05T16:08:35;4;4;
73623;PMS5003;61921;53.226;-1.296;2023-02-05T16:11:00;12;9;
73623;PMS5003;61921;53.226;-1.296;2023-02-05T16:13:25;26;21;
73623;PMS5003;61921;53.226;-1.296;2023-02-05T16:15:53;46;30;
73623;PMS5003;61921;53.226;-1.296;2023-02-05T16:18:17;50;36;
73623;PMS5003;61921;53.226;-1.296;2023-02-05T16:20:42;37;31;
73623;PMS5003;61921;53.226;-1.296;2023-02-05T16:23:07;36;27;
73623;PMS5003;61921;53.226;-1.296;2023-02-05T16:25:34;22;15;
73623;PMS5003;61921;53.226;-1.296;2023-02-05T16:27:58;24;14;
73623;PMS5003;61921;53.226;-1.296;2023-02-05T16:30:25;20;15;
73623;PMS5003;61921;53.226;-1.296;2023-02-05T16:32:50;13;12;
73623;PMS5003;61921;53.226;-1.296;2023-02-05T16:35:16;17;14;
73623;PMS5003;61921;53.226;-1.296;2023-02-05T16:37:39;17;17;
73623;PMS5003;61921;53.226;-1.296;2023-02-05T16:40:05;21;20;
73623;PMS5003;61921;53.226;-1.296;2023-02-05T16:42:31;19;15;
73623;PMS5003;61921;53.226;-1.296;2023-02-05T16:47:21;14;10;
73623;PMS5003;61921;53.226;-1.296;2023-02-05T16:49:46;11;10;
73623;PMS5003;61921;53.226;-1.296;2023-02-05T16:54:37;11;7;
73623;PMS5003;61921;53.226;-1.296;2023-02-05T16:57:04;15;11;
73623;PMS5003;61921;53.226;-1.296;2023-02-05T16:59:29;34;30;
73623;PMS5003;61921;53.226;-1.296;2023-02-05T17:01:54;17;17;
73623;PMS5003;61921;53.226;-1.296;2023-02-05T17:04:21;8;6;
73623;PMS5003;61921;53.226;-1.296;2023-02-05T17:06:44;11;9;
73623;PMS5003;61921;53.226;-1.296;2023-02-05T17:09:20;45;42;
73623;PMS5003;61921;53.226;-1.296;2023-02-05T17:11:36;37;33;
73623;PMS5003;61921;53.226;-1.296;2023-02-05T17:14:11;66;61;
73623;PMS5003;61921;53.226;-1.296;2023-02-05T17:16:27;26;22;
73623;PMS5003;61921;53.226;-1.296;2023-02-05T17:18:52;49;48;
73623;PMS5003;61921;53.226;-1.296;2023-02-05T17:21:20;33;30;
73623;PMS5003;61921;53.226;-1.296;2023-02-05T17:23:46;11;8;
73623;PMS5003;61921;53.226;-1.296;2023-02-05T17:26:09;13;9;
73623;PMS5003;61921;53.226;-1.296;2023-02-05T17:28:34;12;12;
73623;PMS5003;61921;53.226;-1.296;2023-02-05T17:31:00;14;9;
73623;PMS5003;61921;53.226;-1.296;2023-02-05T17:33:27;13;13;